KPOB/POB METAR and TAF weather

Enter ICAO airport designator
Station Type Date Time Source
KPOB METAR 2020/04/09 09:56 UTC NOAA

KPOB 090956Z AUTO 24006KT 10SM OVC150 16/14 A2957 RMK AO2 SLP015 T01580143 $


Station Type Date Time Source
KPOB Decoded METAR 2020/04/09 09:56 UTC NOAA

Pope Air Force Base, NC, United States (KPOB) 35-10N 079-02W 61M
Apr 09, 2020 - 05:56 AM EDT / 2020.04.09 0956 UTC
Wind: from the WSW (240 degrees) at 7 MPH (6 KT):0
Visibility: 10 mile(s):0
Sky conditions: overcast
Temperature: 60.4 F (15.8 C)
Dew Point: 57.7 F (14.3 C)
Relative Humidity: 90%
Pressure (altimeter): 29.57 in. Hg (1001 hPa)
ob: KPOB 090956Z AUTO 24006KT 10SM OVC150 16/14 A2957 RMK AO2 SLP015 T01580143
cycle: 10

Station Type Date Time Source
KPOB TAF 2020/04/09 09:08 UTC NOAA

TAF KPOB 090900Z 0909/1015 25006KT 9000 BR FEW010 BKN150 510053 QNH2956INS
BECMG 0911/0912 25006KT 8000 BR VCTS SCT005 BKN010CB 510023 QNH2955INS
BECMG 0913/0914 25012G20KT 9999 NSW SCT005 510005 QNH2954INS
BECMG 0914/0915 26015G25KT 9999 FEW150 510005 QNH2951INS
TEMPO 0915/0921 28025G35KT 520005
BECMG 0922/0923 28012KT 9999 FEW250 QNH2950INS
BECMG 1013/1014 31020G25KT 9999 SKC QNH2981INS TX28/0918Z TN12/1009Z

Example: see airport list